sensor_id;sensor_type;location;lat;lon;timestamp;P1;durP1;ratioP1;P2;durP2;ratioP2
68921;SDS011;55959;51.244;5.724;2022-12-18T00:03:47;27.10;;;16.23;;
68921;SDS011;55959;51.244;5.724;2022-12-18T00:06:13;24.17;;;15.47;;
68921;SDS011;55959;51.244;5.724;2022-12-18T00:08:40;22.03;;;14.13;;
68921;SDS011;55959;51.244;5.724;2022-12-18T00:11:08;24.00;;;15.33;;
68921;SDS011;55959;51.244;5.724;2022-12-18T00:13:37;20.97;;;15.00;;
68921;SDS011;55959;51.244;5.724;2022-12-18T00:16:03;22.63;;;15.00;;
68921;SDS011;55959;51.244;5.724;2022-12-18T00:18:32;25.10;;;16.33;;
68921;SDS011;55959;51.244;5.724;2022-12-18T00:20:58;21.73;;;14.37;;
68921;SDS011;55959;51.244;5.724;2022-12-18T00:23:26;25.07;;;16.60;;
68921;SDS011;55959;51.244;5.724;2022-12-18T00:25:52;26.50;;;17.30;;
68921;SDS011;55959;51.244;5.724;2022-12-18T00:28:18;22.73;;;14.97;;
68921;SDS011;55959;51.244;5.724;2022-12-18T00:30:44;21.40;;;13.80;;
68921;SDS011;55959;51.244;5.724;2022-12-18T00:33:09;20.77;;;13.80;;
68921;SDS011;55959;51.244;5.724;2022-12-18T00:35:35;20.73;;;13.50;;
68921;SDS011;55959;51.244;5.724;2022-12-18T00:38:01;27.37;;;16.67;;
68921;SDS011;55959;51.244;5.724;2022-12-18T00:40:27;22.53;;;15.57;;
68921;SDS011;55959;51.244;5.724;2022-12-18T00:42:52;24.90;;;15.90;;
68921;SDS011;55959;51.244;5.724;2022-12-18T00:45:21;22.50;;;14.57;;
68921;SDS011;55959;51.244;5.724;2022-12-18T00:47:49;20.97;;;12.80;;
68921;SDS011;55959;51.244;5.724;2022-12-18T00:50:14;31.17;;;14.70;;
68921;SDS011;55959;51.244;5.724;2022-12-18T00:52:40;20.10;;;13.70;;
68921;SDS011;55959;51.244;5.724;2022-12-18T00:55:06;24.23;;;14.23;;
68921;SDS011;55959;51.244;5.724;2022-12-18T00:57:32;20.93;;;13.63;;
68921;SDS011;55959;51.244;5.724;2022-12-18T00:59:58;21.90;;;14.50;;
68921;SDS011;55959;51.244;5.724;2022-12-18T01:02:24;22.90;;;14.53;;
68921;SDS011;55959;51.244;5.724;2022-12-18T01:04:50;22.20;;;14.77;;
68921;SDS011;55959;51.244;5.724;2022-12-18T01:07:16;21.77;;;14.37;;
68921;SDS011;55959;51.244;5.724;2022-12-18T01:09:41;22.77;;;13.90;;
68921;SDS011;55959;51.244;5.724;2022-12-18T01:12:08;22.80;;;14.17;;
68921;SDS011;55959;51.244;5.724;2022-12-18T01:14:34;23.07;;;14.60;;
68921;SDS011;55959;51.244;5.724;2022-12-18T01:17:00;23.07;;;13.70;;
68921;SDS011;55959;51.244;5.724;2022-12-18T01:19:27;24.70;;;15.40;;
68921;SDS011;55959;51.244;5.724;2022-12-18T01:21:53;22.33;;;15.13;;
68921;SDS011;55959;51.244;5.724;2022-12-18T01:24:19;21.33;;;14.77;;
68921;SDS011;55959;51.244;5.724;2022-12-18T01:26:44;23.53;;;14.30;;
68921;SDS011;55959;51.244;5.724;2022-12-18T01:29:10;19.53;;;12.67;;
68921;SDS011;55959;51.244;5.724;2022-12-18T01:31:36;20.67;;;13.37;;
68921;SDS011;55959;51.244;5.724;2022-12-18T01:34:02;20.03;;;13.23;;
68921;SDS011;55959;51.244;5.724;2022-12-18T01:36:30;21.17;;;14.03;;
68921;SDS011;55959;51.244;5.724;2022-12-18T01:39:02;20.47;;;13.20;;
68921;SDS011;55959;51.244;5.724;2022-12-18T01:41:45;21.03;;;13.43;;
68921;SDS011;55959;51.244;5.724;2022-12-18T01:50:11;18.93;;;12.80;;
68921;SDS011;55959;51.244;5.724;2022-12-18T01:55:28;23.40;;;13.53;;
68921;SDS011;55959;51.244;5.724;2022-12-18T01:57:58;18.90;;;12.37;;
68921;SDS011;55959;51.244;5.724;2022-12-18T02:00:25;17.67;;;11.97;;
68921;SDS011;55959;51.244;5.724;2022-12-18T02:02:52;15.93;;;10.80;;
68921;SDS011;55959;51.244;5.724;2022-12-18T02:05:20;18.20;;;11.80;;
68921;SDS011;55959;51.244;5.724;2022-12-18T02:11:04;16.67;;;11.30;;
68921;SDS011;55959;51.244;5.724;2022-12-18T02:14:04;15.83;;;11.57;;
68921;SDS011;55959;51.244;5.724;2022-12-18T02:17:10;17.17;;;12.47;;
68921;SDS011;55959;51.244;5.724;2022-12-18T02:22:43;16.70;;;12.23;;
68921;SDS011;55959;51.244;5.724;2022-12-18T02:28:13;15.70;;;11.27;;
68921;SDS011;55959;51.244;5.724;2022-12-18T02:30:41;15.20;;;10.27;;
68921;SDS011;55959;51.244;5.724;2022-12-18T02:33:11;16.80;;;11.63;;
68921;SDS011;55959;51.244;5.724;2022-12-18T02:35:38;18.50;;;10.53;;
68921;SDS011;55959;51.244;5.724;2022-12-18T02:38:06;17.37;;;11.50;;
68921;SDS011;55959;51.244;5.724;2022-12-18T02:40:32;17.27;;;10.73;;
68921;SDS011;55959;51.244;5.724;2022-12-18T02:43:11;17.83;;;10.80;;
68921;SDS011;55959;51.244;5.724;2022-12-18T02:45:46;15.53;;;11.10;;
68921;SDS011;55959;51.244;5.724;2022-12-18T02:48:52;16.37;;;11.03;;
68921;SDS011;55959;51.244;5.724;2022-12-18T02:51:32;18.53;;;12.07;;
68921;SDS011;55959;51.244;5.724;2022-12-18T02:57:11;18.40;;;11.07;;
68921;SDS011;55959;51.244;5.724;2022-12-18T03:00:23;15.43;;;10.70;;
68921;SDS011;55959;51.244;5.724;2022-12-18T03:05:31;19.10;;;11.73;;
68921;SDS011;55959;51.244;5.724;2022-12-18T03:08:18;20.63;;;13.80;;
68921;SDS011;55959;51.244;5.724;2022-12-18T03:11:02;17.40;;;12.03;;
68921;SDS011;55959;51.244;5.724;2022-12-18T03:16:22;20.30;;;11.27;;
68921;SDS011;55959;51.244;5.724;2022-12-18T03:18:54;18.23;;;11.17;;
68921;SDS011;55959;51.244;5.724;2022-12-18T03:21:26;15.67;;;10.77;;
68921;SDS011;55959;51.244;5.724;2022-12-18T03:24:18;16.37;;;11.27;;
68921;SDS011;55959;51.244;5.724;2022-12-18T03:26:47;19.60;;;11.33;;
68921;SDS011;55959;51.244;5.724;2022-12-18T03:29:18;20.27;;;12.10;;
68921;SDS011;55959;51.244;5.724;2022-12-18T03:31:49;17.80;;;10.93;;
68921;SDS011;55959;51.244;5.724;2022-12-18T03:34:20;16.70;;;11.40;;
68921;SDS011;55959;51.244;5.724;2022-12-18T03:36:54;15.87;;;11.20;;
68921;SDS011;55959;51.244;5.724;2022-12-18T03:39:20;16.83;;;10.97;;
68921;SDS011;55959;51.244;5.724;2022-12-18T03:41:55;17.07;;;11.30;;
68921;SDS011;55959;51.244;5.724;2022-12-18T03:47:27;18.17;;;10.97;;
68921;SDS011;55959;51.244;5.724;2022-12-18T03:52:58;15.43;;;10.43;;
68921;SDS011;55959;51.244;5.724;2022-12-18T03:55:46;15.93;;;11.20;;
68921;SDS011;55959;51.244;5.724;2022-12-18T03:58:15;16.13;;;10.73;;
68921;SDS011;55959;51.244;5.724;2022-12-18T04:00:45;16.93;;;10.23;;
68921;SDS011;55959;51.244;5.724;2022-12-18T04:03:12;15.17;;;10.03;;
68921;SDS011;55959;51.244;5.724;2022-12-18T04:05:39;20.47;;;11.80;;
68921;SDS011;55959;51.244;5.724;2022-12-18T04:08:07;15.07;;;10.47;;
68921;SDS011;55959;51.244;5.724;2022-12-18T04:10:36;17.27;;;10.53;;
68921;SDS011;55959;51.244;5.724;2022-12-18T04:13:02;16.90;;;10.50;;
68921;SDS011;55959;51.244;5.724;2022-12-18T04:15:28;17.57;;;11.50;;
68921;SDS011;55959;51.244;5.724;2022-12-18T04:17:53;19.83;;;11.73;;
68921;SDS011;55959;51.244;5.724;2022-12-18T04:20:19;16.67;;;11.37;;
68921;SDS011;55959;51.244;5.724;2022-12-18T04:22:46;16.80;;;11.90;;
68921;SDS011;55959;51.244;5.724;2022-12-18T04:25:12;19.10;;;11.43;;
68921;SDS011;55959;51.244;5.724;2022-12-18T04:27:38;16.53;;;10.37;;
68921;SDS011;55959;51.244;5.724;2022-12-18T04:30:04;16.47;;;10.53;;
68921;SDS011;55959;51.244;5.724;2022-12-18T04:32:30;14.17;;;10.77;;
68921;SDS011;55959;51.244;5.724;2022-12-18T04:34:58;18.03;;;11.23;;
68921;SDS011;55959;51.244;5.724;2022-12-18T04:37:24;17.07;;;10.67;;
68921;SDS011;55959;51.244;5.724;2022-12-18T04:39:49;15.53;;;10.50;;
68921;SDS011;55959;51.244;5.724;2022-12-18T04:42:15;16.27;;;10.37;;
68921;SDS011;55959;51.244;5.724;2022-12-18T04:44:41;13.53;;;9.77;;
68921;SDS011;55959;51.244;5.724;2022-12-18T04:47:07;14.33;;;9.83;;
68921;SDS011;55959;51.244;5.724;2022-12-18T04:49:32;16.80;;;10.00;;
68921;SDS011;55959;51.244;5.724;2022-12-18T04:51:58;14.93;;;9.77;;
68921;SDS011;55959;51.244;5.724;2022-12-18T04:54:24;14.97;;;9.33;;
68921;SDS011;55959;51.244;5.724;2022-12-18T04:56:50;15.97;;;9.70;;
68921;SDS011;55959;51.244;5.724;2022-12-18T04:59:16;15.03;;;9.80;;
68921;SDS011;55959;51.244;5.724;2022-12-18T05:01:41;14.30;;;10.00;;
68921;SDS011;55959;51.244;5.724;2022-12-18T05:04:07;15.83;;;10.93;;
68921;SDS011;55959;51.244;5.724;2022-12-18T05:06:33;17.10;;;10.07;;
68921;SDS011;55959;51.244;5.724;2022-12-18T05:08:59;15.77;;;10.17;;
68921;SDS011;55959;51.244;5.724;2022-12-18T05:11:25;14.97;;;9.43;;
68921;SDS011;55959;51.244;5.724;2022-12-18T05:13:50;15.20;;;9.33;;
68921;SDS011;55959;51.244;5.724;2022-12-18T05:16:16;15.80;;;10.27;;
68921;SDS011;55959;51.244;5.724;2022-12-18T05:18:42;15.90;;;10.53;;
68921;SDS011;55959;51.244;5.724;2022-12-18T05:21:08;15.67;;;11.30;;
68921;SDS011;55959;51.244;5.724;2022-12-18T05:23:34;18.00;;;11.60;;
68921;SDS011;55959;51.244;5.724;2022-12-18T05:26:00;15.53;;;10.03;;
68921;SDS011;55959;51.244;5.724;2022-12-18T05:28:28;16.60;;;10.87;;
68921;SDS011;55959;51.244;5.724;2022-12-18T05:30:57;14.43;;;9.33;;
68921;SDS011;55959;51.244;5.724;2022-12-18T05:33:25;14.03;;;9.33;;
68921;SDS011;55959;51.244;5.724;2022-12-18T05:35:56;16.53;;;9.67;;
68921;SDS011;55959;51.244;5.724;2022-12-18T05:38:25;14.23;;;9.70;;
68921;SDS011;55959;51.244;5.724;2022-12-18T05:40:52;16.00;;;9.07;;
68921;SDS011;55959;51.244;5.724;2022-12-18T05:43:19;14.57;;;9.67;;
68921;SDS011;55959;51.244;5.724;2022-12-18T05:45:49;15.00;;;10.17;;
68921;SDS011;55959;51.244;5.724;2022-12-18T05:48:27;14.07;;;9.80;;
68921;SDS011;55959;51.244;5.724;2022-12-18T05:50:53;14.30;;;9.10;;
68921;SDS011;55959;51.244;5.724;2022-12-18T05:53:19;15.63;;;9.50;;
68921;SDS011;55959;51.244;5.724;2022-12-18T05:55:45;19.23;;;10.27;;
68921;SDS011;55959;51.244;5.724;2022-12-18T05:58:12;17.00;;;10.80;;
68921;SDS011;55959;51.244;5.724;2022-12-18T06:00:44;15.00;;;10.40;;
68921;SDS011;55959;51.244;5.724;2022-12-18T06:03:11;14.93;;;9.63;;
68921;SDS011;55959;51.244;5.724;2022-12-18T06:05:39;16.33;;;10.07;;
68921;SDS011;55959;51.244;5.724;2022-12-18T06:08:07;15.07;;;9.93;;
68921;SDS011;55959;51.244;5.724;2022-12-18T06:10:34;16.03;;;10.03;;
68921;SDS011;55959;51.244;5.724;2022-12-18T06:12:59;15.07;;;10.43;;
68921;SDS011;55959;51.244;5.724;2022-12-18T06:15:25;17.03;;;9.97;;
68921;SDS011;55959;51.244;5.724;2022-12-18T06:17:51;13.03;;;9.27;;
68921;SDS011;55959;51.244;5.724;2022-12-18T06:20:17;15.57;;;10.27;;
68921;SDS011;55959;51.244;5.724;2022-12-18T06:22:43;19.20;;;9.77;;
68921;SDS011;55959;51.244;5.724;2022-12-18T06:25:09;15.23;;;9.97;;
68921;SDS011;55959;51.244;5.724;2022-12-18T06:27:36;15.57;;;10.20;;
68921;SDS011;55959;51.244;5.724;2022-12-18T06:30:01;15.47;;;9.90;;
68921;SDS011;55959;51.244;5.724;2022-12-18T06:32:28;14.80;;;9.43;;
68921;SDS011;55959;51.244;5.724;2022-12-18T06:34:54;15.57;;;10.37;;
68921;SDS011;55959;51.244;5.724;2022-12-18T06:37:20;15.73;;;10.23;;
68921;SDS011;55959;51.244;5.724;2022-12-18T06:39:49;14.17;;;9.87;;
68921;SDS011;55959;51.244;5.724;2022-12-18T06:42:15;14.73;;;11.23;;
68921;SDS011;55959;51.244;5.724;2022-12-18T06:44:41;16.13;;;10.13;;
68921;SDS011;55959;51.244;5.724;2022-12-18T06:47:06;16.13;;;10.27;;
68921;SDS011;55959;51.244;5.724;2022-12-18T06:49:32;16.23;;;10.23;;
68921;SDS011;55959;51.244;5.724;2022-12-18T06:51:58;14.23;;;9.80;;
68921;SDS011;55959;51.244;5.724;2022-12-18T06:54:23;14.60;;;9.83;;
68921;SDS011;55959;51.244;5.724;2022-12-18T06:56:49;15.97;;;10.50;;
68921;SDS011;55959;51.244;5.724;2022-12-18T06:59:15;14.90;;;9.60;;
68921;SDS011;55959;51.244;5.724;2022-12-18T07:01:40;17.07;;;10.27;;
68921;SDS011;55959;51.244;5.724;2022-12-18T07:04:06;12.43;;;9.20;;
68921;SDS011;55959;51.244;5.724;2022-12-18T07:06:32;13.97;;;9.77;;
68921;SDS011;55959;51.244;5.724;2022-12-18T07:08:58;15.53;;;10.10;;
68921;SDS011;55959;51.244;5.724;2022-12-18T07:11:23;17.20;;;10.13;;
68921;SDS011;55959;51.244;5.724;2022-12-18T07:13:49;14.70;;;9.40;;
68921;SDS011;55959;51.244;5.724;2022-12-18T07:16:18;13.47;;;9.27;;
68921;SDS011;55959;51.244;5.724;2022-12-18T07:18:45;14.60;;;10.03;;
68921;SDS011;55959;51.244;5.724;2022-12-18T07:21:15;13.33;;;9.27;;
68921;SDS011;55959;51.244;5.724;2022-12-18T07:23:43;17.33;;;10.10;;
68921;SDS011;55959;51.244;5.724;2022-12-18T07:26:11;14.47;;;9.73;;
68921;SDS011;55959;51.244;5.724;2022-12-18T07:28:39;17.07;;;11.07;;
68921;SDS011;55959;51.244;5.724;2022-12-18T07:31:08;15.57;;;10.70;;
68921;SDS011;55959;51.244;5.724;2022-12-18T07:33:37;14.47;;;10.03;;
68921;SDS011;55959;51.244;5.724;2022-12-18T07:36:04;15.27;;;10.67;;
68921;SDS011;55959;51.244;5.724;2022-12-18T07:38:32;14.70;;;9.93;;
68921;SDS011;55959;51.244;5.724;2022-12-18T07:43:29;14.03;;;10.67;;
68921;SDS011;55959;51.244;5.724;2022-12-18T07:45:55;14.77;;;10.17;;
68921;SDS011;55959;51.244;5.724;2022-12-18T07:48:21;15.00;;;10.63;;
68921;SDS011;55959;51.244;5.724;2022-12-18T07:50:46;16.50;;;11.00;;
68921;SDS011;55959;51.244;5.724;2022-12-18T07:53:12;16.50;;;11.30;;
68921;SDS011;55959;51.244;5.724;2022-12-18T07:55:39;16.33;;;11.43;;
68921;SDS011;55959;51.244;5.724;2022-12-18T07:58:06;16.17;;;11.10;;
68921;SDS011;55959;51.244;5.724;2022-12-18T08:00:32;16.53;;;11.37;;
68921;SDS011;55959;51.244;5.724;2022-12-18T08:02:58;16.87;;;11.23;;
68921;SDS011;55959;51.244;5.724;2022-12-18T08:05:24;17.30;;;11.63;;
68921;SDS011;55959;51.244;5.724;2022-12-18T08:07:50;15.60;;;10.70;;
68921;SDS011;55959;51.244;5.724;2022-12-18T08:10:17;17.13;;;11.07;;
68921;SDS011;55959;51.244;5.724;2022-12-18T08:12:43;17.30;;;11.50;;
68921;SDS011;55959;51.244;5.724;2022-12-18T08:15:09;16.63;;;11.60;;
68921;SDS011;55959;51.244;5.724;2022-12-18T08:17:35;16.57;;;11.07;;
68921;SDS011;55959;51.244;5.724;2022-12-18T08:20:01;16.30;;;11.47;;
68921;SDS011;55959;51.244;5.724;2022-12-18T08:22:26;20.53;;;12.50;;
68921;SDS011;55959;51.244;5.724;2022-12-18T08:24:52;19.90;;;12.73;;
68921;SDS011;55959;51.244;5.724;2022-12-18T08:27:18;19.07;;;12.70;;
68921;SDS011;55959;51.244;5.724;2022-12-18T08:29:44;17.77;;;12.40;;
68921;SDS011;55959;51.244;5.724;2022-12-18T08:32:09;20.83;;;12.47;;
68921;SDS011;55959;51.244;5.724;2022-12-18T08:34:35;15.63;;;10.97;;
68921;SDS011;55959;51.244;5.724;2022-12-18T08:37:01;17.73;;;12.80;;
68921;SDS011;55959;51.244;5.724;2022-12-18T08:39:26;16.77;;;11.77;;
68921;SDS011;55959;51.244;5.724;2022-12-18T08:41:52;17.83;;;11.70;;
68921;SDS011;55959;51.244;5.724;2022-12-18T08:44:36;15.77;;;10.70;;
68921;SDS011;55959;51.244;5.724;2022-12-18T08:47:02;15.37;;;9.67;;
68921;SDS011;55959;51.244;5.724;2022-12-18T08:49:28;17.73;;;11.73;;
68921;SDS011;55959;51.244;5.724;2022-12-18T08:51:54;15.73;;;11.73;;
68921;SDS011;55959;51.244;5.724;2022-12-18T08:54:22;18.37;;;12.27;;
68921;SDS011;55959;51.244;5.724;2022-12-18T08:56:49;15.90;;;10.80;;
68921;SDS011;55959;51.244;5.724;2022-12-18T08:59:15;18.23;;;13.00;;
68921;SDS011;55959;51.244;5.724;2022-12-18T09:01:44;17.23;;;12.17;;
68921;SDS011;55959;51.244;5.724;2022-12-18T09:04:11;15.63;;;11.57;;
68921;SDS011;55959;51.244;5.724;2022-12-18T09:06:37;17.47;;;11.83;;
68921;SDS011;55959;51.244;5.724;2022-12-18T09:09:03;19.27;;;13.23;;
68921;SDS011;55959;51.244;5.724;2022-12-18T09:11:30;16.27;;;11.73;;
68921;SDS011;55959;51.244;5.724;2022-12-18T09:13:57;15.90;;;12.33;;
68921;SDS011;55959;51.244;5.724;2022-12-18T09:16:24;17.83;;;12.30;;
68921;SDS011;55959;51.244;5.724;2022-12-18T09:18:53;17.97;;;13.03;;
68921;SDS011;55959;51.244;5.724;2022-12-18T09:21:25;17.53;;;13.40;;
68921;SDS011;55959;51.244;5.724;2022-12-18T09:23:53;17.80;;;11.70;;
68921;SDS011;55959;51.244;5.724;2022-12-18T09:26:20;14.83;;;11.40;;
68921;SDS011;55959;51.244;5.724;2022-12-18T09:28:47;18.67;;;12.40;;
68921;SDS011;55959;51.244;5.724;2022-12-18T09:31:13;17.57;;;10.97;;
68921;SDS011;55959;51.244;5.724;2022-12-18T09:33:40;17.13;;;11.33;;
68921;SDS011;55959;51.244;5.724;2022-12-18T09:36:07;17.63;;;13.57;;
68921;SDS011;55959;51.244;5.724;2022-12-18T09:38:35;19.90;;;13.67;;
68921;SDS011;55959;51.244;5.724;2022-12-18T09:44:11;17.47;;;13.00;;
68921;SDS011;55959;51.244;5.724;2022-12-18T09:49:59;19.53;;;12.60;;
68921;SDS011;55959;51.244;5.724;2022-12-18T09:52:35;17.60;;;12.20;;
68921;SDS011;55959;51.244;5.724;2022-12-18T09:55:08;15.97;;;11.10;;
68921;SDS011;55959;51.244;5.724;2022-12-18T09:57:56;16.73;;;12.07;;
68921;SDS011;55959;51.244;5.724;2022-12-18T10:00:31;17.47;;;11.80;;
68921;SDS011;55959;51.244;5.724;2022-12-18T10:03:11;16.10;;;12.27;;
68921;SDS011;55959;51.244;5.724;2022-12-18T10:05:41;16.47;;;11.77;;
68921;SDS011;55959;51.244;5.724;2022-12-18T10:08:28;16.93;;;12.20;;
68921;SDS011;55959;51.244;5.724;2022-12-18T10:11:10;18.67;;;12.90;;
68921;SDS011;55959;51.244;5.724;2022-12-18T10:13:54;16.70;;;12.47;;
68921;SDS011;55959;51.244;5.724;2022-12-18T10:16:39;17.40;;;13.10;;
68921;SDS011;55959;51.244;5.724;2022-12-18T10:19:34;18.00;;;12.77;;
68921;SDS011;55959;51.244;5.724;2022-12-18T10:25:38;17.53;;;12.27;;
68921;SDS011;55959;51.244;5.724;2022-12-18T10:28:20;19.93;;;13.50;;
68921;SDS011;55959;51.244;5.724;2022-12-18T10:30:47;17.90;;;12.83;;
68921;SDS011;55959;51.244;5.724;2022-12-18T10:33:17;17.20;;;12.57;;
68921;SDS011;55959;51.244;5.724;2022-12-18T10:35:52;19.43;;;14.20;;
68921;SDS011;55959;51.244;5.724;2022-12-18T10:43:29;16.63;;;12.47;;
68921;SDS011;55959;51.244;5.724;2022-12-18T10:45:59;17.57;;;13.00;;
68921;SDS011;55959;51.244;5.724;2022-12-18T10:48:28;18.87;;;12.93;;
68921;SDS011;55959;51.244;5.724;2022-12-18T10:50:55;18.10;;;13.53;;
68921;SDS011;55959;51.244;5.724;2022-12-18T10:53:22;18.03;;;13.03;;
68921;SDS011;55959;51.244;5.724;2022-12-18T10:55:52;18.60;;;13.40;;
68921;SDS011;55959;51.244;5.724;2022-12-18T10:58:25;18.47;;;12.70;;
68921;SDS011;55959;51.244;5.724;2022-12-18T11:01:11;18.73;;;12.17;;
68921;SDS011;55959;51.244;5.724;2022-12-18T11:03:43;17.47;;;13.03;;
68921;SDS011;55959;51.244;5.724;2022-12-18T11:06:16;16.87;;;12.67;;
68921;SDS011;55959;51.244;5.724;2022-12-18T11:09:05;19.07;;;13.53;;
68921;SDS011;55959;51.244;5.724;2022-12-18T11:11:58;16.77;;;13.63;;
68921;SDS011;55959;51.244;5.724;2022-12-18T11:14:28;17.47;;;13.73;;
68921;SDS011;55959;51.244;5.724;2022-12-18T11:16:59;17.83;;;13.33;;
68921;SDS011;55959;51.244;5.724;2022-12-18T11:19:28;19.07;;;13.93;;
68921;SDS011;55959;51.244;5.724;2022-12-18T11:21:59;19.93;;;13.07;;
68921;SDS011;55959;51.244;5.724;2022-12-18T11:24:29;17.47;;;12.90;;
68921;SDS011;55959;51.244;5.724;2022-12-18T11:26:59;19.97;;;13.50;;
68921;SDS011;55959;51.244;5.724;2022-12-18T11:29:38;18.70;;;14.23;;
68921;SDS011;55959;51.244;5.724;2022-12-18T11:32:25;18.23;;;13.17;;
68921;SDS011;55959;51.244;5.724;2022-12-18T11:35:13;16.60;;;12.17;;
68921;SDS011;55959;51.244;5.724;2022-12-18T11:37:53;18.63;;;13.27;;
68921;SDS011;55959;51.244;5.724;2022-12-18T11:40:29;18.03;;;13.20;;
68921;SDS011;55959;51.244;5.724;2022-12-18T11:46:11;16.90;;;12.80;;
68921;SDS011;55959;51.244;5.724;2022-12-18T11:48:58;18.20;;;12.97;;
68921;SDS011;55959;51.244;5.724;2022-12-18T11:51:36;15.70;;;12.13;;
68921;SDS011;55959;51.244;5.724;2022-12-18T11:54:12;19.10;;;13.33;;
68921;SDS011;55959;51.244;5.724;2022-12-18T11:56:44;17.13;;;12.07;;
68921;SDS011;55959;51.244;5.724;2022-12-18T12:02:24;16.60;;;12.50;;
68921;SDS011;55959;51.244;5.724;2022-12-18T12:07:51;18.07;;;13.43;;
68921;SDS011;55959;51.244;5.724;2022-12-18T12:10:39;17.47;;;12.93;;
68921;SDS011;55959;51.244;5.724;2022-12-18T12:13:43;20.50;;;13.70;;
68921;SDS011;55959;51.244;5.724;2022-12-18T12:16:37;15.90;;;12.67;;
68921;SDS011;55959;51.244;5.724;2022-12-18T12:19:23;18.13;;;12.73;;
68921;SDS011;55959;51.244;5.724;2022-12-18T12:30:42;17.87;;;13.27;;
68921;SDS011;55959;51.244;5.724;2022-12-18T12:39:13;17.07;;;13.53;;
68921;SDS011;55959;51.244;5.724;2022-12-18T12:41:43;18.30;;;13.83;;
68921;SDS011;55959;51.244;5.724;2022-12-18T12:44:30;18.13;;;13.10;;
68921;SDS011;55959;51.244;5.724;2022-12-18T12:47:13;16.90;;;12.60;;
68921;SDS011;55959;51.244;5.724;2022-12-18T12:49:44;18.37;;;14.13;;
68921;SDS011;55959;51.244;5.724;2022-12-18T12:52:14;17.83;;;12.90;;
68921;SDS011;55959;51.244;5.724;2022-12-18T12:55:12;18.37;;;13.80;;
68921;SDS011;55959;51.244;5.724;2022-12-18T12:58:05;19.30;;;13.50;;
68921;SDS011;55959;51.244;5.724;2022-12-18T13:00:59;18.10;;;13.47;;
68921;SDS011;55959;51.244;5.724;2022-12-18T13:03:42;18.10;;;12.77;;
68921;SDS011;55959;51.244;5.724;2022-12-18T13:06:40;18.67;;;12.70;;
68921;SDS011;55959;51.244;5.724;2022-12-18T13:09:23;20.20;;;14.57;;
68921;SDS011;55959;51.244;5.724;2022-12-18T13:11:49;17.60;;;12.97;;
68921;SDS011;55959;51.244;5.724;2022-12-18T13:14:38;17.67;;;13.40;;
68921;SDS011;55959;51.244;5.724;2022-12-18T13:19:47;17.77;;;12.90;;
68921;SDS011;55959;51.244;5.724;2022-12-18T13:22:34;20.70;;;14.30;;
68921;SDS011;55959;51.244;5.724;2022-12-18T13:25:26;17.33;;;13.63;;
68921;SDS011;55959;51.244;5.724;2022-12-18T13:39:09;18.43;;;13.43;;
68921;SDS011;55959;51.244;5.724;2022-12-18T13:40:57;19.00;;;13.47;;
68921;SDS011;55959;51.244;5.724;2022-12-18T13:43:49;19.23;;;14.07;;
68921;SDS011;55959;51.244;5.724;2022-12-18T13:46:30;18.73;;;13.27;;
68921;SDS011;55959;51.244;5.724;2022-12-18T13:51:46;19.93;;;13.13;;
68921;SDS011;55959;51.244;5.724;2022-12-18T13:57:04;17.57;;;12.70;;
68921;SDS011;55959;51.244;5.724;2022-12-18T13:59:47;17.30;;;12.80;;
68921;SDS011;55959;51.244;5.724;2022-12-18T14:02:14;16.30;;;12.53;;
68921;SDS011;55959;51.244;5.724;2022-12-18T14:04:48;19.37;;;13.90;;
68921;SDS011;55959;51.244;5.724;2022-12-18T14:07:19;18.47;;;13.47;;
68921;SDS011;55959;51.244;5.724;2022-12-18T14:09:51;16.40;;;12.93;;
68921;SDS011;55959;51.244;5.724;2022-12-18T14:12:24;19.80;;;14.23;;
68921;SDS011;55959;51.244;5.724;2022-12-18T14:17:54;19.67;;;14.70;;
68921;SDS011;55959;51.244;5.724;2022-12-18T14:20:34;16.10;;;12.93;;
68921;SDS011;55959;51.244;5.724;2022-12-18T14:23:00;19.50;;;14.37;;
68921;SDS011;55959;51.244;5.724;2022-12-18T14:25:27;17.93;;;12.90;;
68921;SDS011;55959;51.244;5.724;2022-12-18T14:30:35;16.73;;;13.30;;
68921;SDS011;55959;51.244;5.724;2022-12-18T14:35:35;19.30;;;14.47;;
68921;SDS011;55959;51.244;5.724;2022-12-18T14:38:11;17.77;;;13.30;;
68921;SDS011;55959;51.244;5.724;2022-12-18T14:41:06;19.60;;;14.37;;
68921;SDS011;55959;51.244;5.724;2022-12-18T14:43:38;17.00;;;12.43;;
68921;SDS011;55959;51.244;5.724;2022-12-18T14:46:25;18.97;;;13.67;;
68921;SDS011;55959;51.244;5.724;2022-12-18T14:48:58;17.57;;;12.97;;
68921;SDS011;55959;51.244;5.724;2022-12-18T14:51:28;18.53;;;13.10;;
68921;SDS011;55959;51.244;5.724;2022-12-18T14:53:59;18.27;;;13.87;;
68921;SDS011;55959;51.244;5.724;2022-12-18T14:59:15;17.10;;;13.20;;
68921;SDS011;55959;51.244;5.724;2022-12-18T15:07:07;18.10;;;13.37;;
68921;SDS011;55959;51.244;5.724;2022-12-18T15:09:38;16.83;;;13.30;;
68921;SDS011;55959;51.244;5.724;2022-12-18T15:15:01;16.97;;;12.53;;
68921;SDS011;55959;51.244;5.724;2022-12-18T15:17:29;18.40;;;13.27;;
68921;SDS011;55959;51.244;5.724;2022-12-18T15:19:59;20.47;;;14.00;;
68921;SDS011;55959;51.244;5.724;2022-12-18T15:22:29;17.40;;;13.23;;
68921;SDS011;55959;51.244;5.724;2022-12-18T15:25:00;18.00;;;13.00;;
68921;SDS011;55959;51.244;5.724;2022-12-18T15:27:32;18.90;;;13.57;;
68921;SDS011;55959;51.244;5.724;2022-12-18T15:32:35;20.53;;;14.43;;
68921;SDS011;55959;51.244;5.724;2022-12-18T15:35:07;18.40;;;14.70;;
68921;SDS011;55959;51.244;5.724;2022-12-18T15:37:43;20.97;;;15.17;;
68921;SDS011;55959;51.244;5.724;2022-12-18T15:40:12;20.03;;;14.00;;
68921;SDS011;55959;51.244;5.724;2022-12-18T15:42:47;17.87;;;13.13;;
68921;SDS011;55959;51.244;5.724;2022-12-18T15:45:32;19.93;;;14.10;;
68921;SDS011;55959;51.244;5.724;2022-12-18T15:47:58;17.80;;;14.27;;
68921;SDS011;55959;51.244;5.724;2022-12-18T15:50:24;20.03;;;14.90;;
68921;SDS011;55959;51.244;5.724;2022-12-18T15:52:51;18.07;;;14.03;;
68921;SDS011;55959;51.244;5.724;2022-12-18T15:55:20;20.70;;;15.57;;
68921;SDS011;55959;51.244;5.724;2022-12-18T15:58:07;18.70;;;14.03;;
68921;SDS011;55959;51.244;5.724;2022-12-18T16:00:35;21.73;;;13.40;;
68921;SDS011;55959;51.244;5.724;2022-12-18T16:03:03;19.53;;;13.47;;
68921;SDS011;55959;51.244;5.724;2022-12-18T16:05:30;20.50;;;14.60;;
68921;SDS011;55959;51.244;5.724;2022-12-18T16:07:56;20.07;;;13.70;;
68921;SDS011;55959;51.244;5.724;2022-12-18T16:10:24;19.37;;;14.40;;
68921;SDS011;55959;51.244;5.724;2022-12-18T16:12:51;18.03;;;13.30;;
68921;SDS011;55959;51.244;5.724;2022-12-18T16:15:17;18.00;;;13.67;;
68921;SDS011;55959;51.244;5.724;2022-12-18T16:17:43;20.80;;;15.30;;
68921;SDS011;55959;51.244;5.724;2022-12-18T16:20:14;18.80;;;14.53;;
68921;SDS011;55959;51.244;5.724;2022-12-18T16:22:46;20.47;;;15.57;;
68921;SDS011;55959;51.244;5.724;2022-12-18T16:27:46;18.73;;;14.60;;
68921;SDS011;55959;51.244;5.724;2022-12-18T16:30:14;18.50;;;14.53;;
68921;SDS011;55959;51.244;5.724;2022-12-18T16:32:42;21.23;;;14.77;;
68921;SDS011;55959;51.244;5.724;2022-12-18T16:35:12;22.13;;;15.53;;
68921;SDS011;55959;51.244;5.724;2022-12-18T16:37:40;19.33;;;14.63;;
68921;SDS011;55959;51.244;5.724;2022-12-18T16:40:07;20.70;;;14.53;;
68921;SDS011;55959;51.244;5.724;2022-12-18T16:42:36;23.50;;;16.07;;
68921;SDS011;55959;51.244;5.724;2022-12-18T16:45:05;20.93;;;14.67;;